createdAt,value
2022-12-31T00:00:11.944Z,100.00
2022-12-31T00:05:13.945Z,100.00
2022-12-31T00:10:14.814Z,100.00
2022-12-31T00:15:15.969Z,100.00
2022-12-31T00:20:16.739Z,100.00
2022-12-31T00:25:17.912Z,100.00
2022-12-31T00:30:18.658Z,100.00
2022-12-31T00:35:19.433Z,100.00
2022-12-31T00:40:20.224Z,100.00
2022-12-31T00:45:21.327Z,100.00
2022-12-31T00:50:22.059Z,100.00
2022-12-31T00:55:23.192Z,100.00
2022-12-31T01:00:24.028Z,100.00
2022-12-31T01:05:24.816Z,100.00
2022-12-31T01:10:44.254Z,100.00
2022-12-31T01:15:45.234Z,100.00
2022-12-31T01:20:45.962Z,100.00
2022-12-31T01:25:46.806Z,100.00
2022-12-31T01:30:47.545Z,100.00
2022-12-31T01:35:48.585Z,100.00
2022-12-31T01:40:49.323Z,100.00
2022-12-31T01:45:53.524Z,100.00
2022-12-31T01:50:54.417Z,100.00
2022-12-31T01:55:58.669Z,100.00
2022-12-31T02:00:59.841Z,100.00
2022-12-31T02:06:07.910Z,100.00
2022-12-31T02:11:28.362Z,100.00
2022-12-31T02:17:03.151Z,100.00
2022-12-31T02:28:00.947Z,100.00
2022-12-31T02:33:25.409Z,100.00
2022-12-31T02:38:31.135Z,100.00
2022-12-31T02:43:31.967Z,100.00
2022-12-31T02:50:29.627Z,100.00
2022-12-31T02:55:42.174Z,100.00
2022-12-31T03:01:09.250Z,100.00
2022-12-31T03:06:11.354Z,100.00
2022-12-31T03:12:45.307Z,100.00
2022-12-31T03:20:17.081Z,100.00
2022-12-31T03:25:37.152Z,100.00
2022-12-31T03:30:40.201Z,100.00
2022-12-31T03:35:42.833Z,100.00
2022-12-31T03:40:47.516Z,100.00
2022-12-31T03:45:53.096Z,100.00
2022-12-31T03:50:53.908Z,100.00
2022-12-31T03:55:54.978Z,100.00
2022-12-31T04:00:55.909Z,100.00
2022-12-31T04:05:56.783Z,100.00
2022-12-31T04:10:57.735Z,100.00
2022-12-31T04:15:58.691Z,100.00
2022-12-31T04:21:04.458Z,100.00
2022-12-31T04:26:05.190Z,100.00
2022-12-31T04:31:05.996Z,100.00
2022-12-31T04:36:07.791Z,100.00
2022-12-31T04:41:17.628Z,100.00
2022-12-31T04:46:21.245Z,100.00
2022-12-31T04:51:23.152Z,100.00
2022-12-31T04:56:24.721Z,100.00
2022-12-31T05:01:25.601Z,100.00
2022-12-31T05:06:26.522Z,100.00
2022-12-31T05:11:27.609Z,100.00
2022-12-31T05:16:28.360Z,100.00
2022-12-31T05:21:29.235Z,100.00
2022-12-31T05:26:30.016Z,100.00
2022-12-31T05:31:30.790Z,100.00
2022-12-31T05:36:31.524Z,100.00
2022-12-31T05:41:32.343Z,100.00
2022-12-31T05:46:33.135Z,100.00
2022-12-31T05:51:34.318Z,100.00
2022-12-31T05:56:35.092Z,100.00
2022-12-31T06:01:35.945Z,100.00
2022-12-31T06:06:36.899Z,100.00
2022-12-31T06:11:37.910Z,100.00
2022-12-31T06:16:39.931Z,100.00
2022-12-31T06:21:40.757Z,100.00
2022-12-31T06:26:41.521Z,100.00
2022-12-31T06:31:42.300Z,100.00
2022-12-31T06:36:43.100Z,100.00
2022-12-31T06:41:43.980Z,100.00
2022-12-31T06:46:45.258Z,100.00
2022-12-31T06:51:47.292Z,100.00
2022-12-31T06:56:48.549Z,100.00
2022-12-31T07:03:38.314Z,100.00
2022-12-31T07:08:55.828Z,100.00
2022-12-31T07:14:31.751Z,100.00
2022-12-31T07:21:31.669Z,100.00
2022-12-31T07:28:07.860Z,100.00
2022-12-31T07:33:59.498Z,100.00
2022-12-31T07:39:12.991Z,100.00
2022-12-31T07:44:34.575Z,100.00
2022-12-31T07:49:37.897Z,100.00
2022-12-31T07:54:38.679Z,100.00
2022-12-31T08:00:22.716Z,100.00
2022-12-31T08:05:57.826Z,100.00
2022-12-31T08:11:20.717Z,100.00
2022-12-31T08:16:22.043Z,100.00
2022-12-31T08:23:25.161Z,100.00
2022-12-31T08:29:34.164Z,100.00
2022-12-31T08:34:47.679Z,100.00
2022-12-31T08:40:06.548Z,100.00
2022-12-31T08:45:24.108Z,100.00
2022-12-31T08:50:25.450Z,100.00
2022-12-31T08:55:26.861Z,100.00
2022-12-31T09:00:30.011Z,100.00
2022-12-31T09:06:01.590Z,100.00
2022-12-31T09:14:35.856Z,100.00
2022-12-31T09:19:36.648Z,100.00
2022-12-31T09:24:38.214Z,100.00
2022-12-31T09:30:03.971Z,100.00
2022-12-31T09:35:54.525Z,100.00
2022-12-31T09:41:12.208Z,100.00
2022-12-31T09:46:50.900Z,100.00
2022-12-31T09:53:42.194Z,100.00
2022-12-31T09:59:10.282Z,100.00
2022-12-31T10:11:18.735Z,100.00
2022-12-31T10:16:53.476Z,100.00
2022-12-31T10:23:53.292Z,100.00
2022-12-31T10:29:41.655Z,100.00
2022-12-31T10:41:58.062Z,100.00
2022-12-31T10:49:09.847Z,100.00
2022-12-31T10:56:55.781Z,100.00
2022-12-31T11:06:17.379Z,100.00
2022-12-31T11:11:44.179Z,100.00
2022-12-31T11:17:39.703Z,100.00
2022-12-31T11:24:53.701Z,100.00
2022-12-31T11:36:34.496Z,98.85
2022-12-31T11:41:51.242Z,97.25
2022-12-31T11:47:21.403Z,94.68
2022-12-31T11:54:02.090Z,94.73
2022-12-31T11:59:14.372Z,97.51
2022-12-31T12:04:19.705Z,97.11
2022-12-31T12:09:28.548Z,94.53
2022-12-31T12:14:35.796Z,94.45
2022-12-31T12:19:43.331Z,95.97
2022-12-31T12:24:56.170Z,96.78
2022-12-31T12:29:57.590Z,97.77
2022-12-31T12:34:59.202Z,98.28
2022-12-31T12:40:03.084Z,97.32
2022-12-31T12:45:13.328Z,96.92
2022-12-31T12:50:21.090Z,97.09
2022-12-31T12:55:53.495Z,96.24
2022-12-31T13:01:47.124Z,95.69
2022-12-31T13:13:42.408Z,95.04
2022-12-31T13:20:56.035Z,93.26
2022-12-31T13:28:34.825Z,92.05
2022-12-31T13:33:42.059Z,89.23
2022-12-31T13:38:52.275Z,90.66
2022-12-31T13:44:27.227Z,93.18
2022-12-31T13:49:47.771Z,93.88
2022-12-31T13:54:57.536Z,94.50
2022-12-31T14:00:03.482Z,94.78
2022-12-31T14:06:03.664Z,94.27
2022-12-31T14:11:26.518Z,93.63
2022-12-31T14:18:08.097Z,94.31
2022-12-31T14:24:05.136Z,94.08
2022-12-31T14:29:46.570Z,94.00
2022-12-31T14:35:05.188Z,94.28
2022-12-31T14:40:40.943Z,94.82
2022-12-31T14:49:05.408Z,94.79
2022-12-31T14:54:28.976Z,93.97
2022-12-31T14:59:34.437Z,93.83
2022-12-31T15:04:45.297Z,93.05
2022-12-31T15:10:02.320Z,93.55
2022-12-31T15:15:24.880Z,93.60
2022-12-31T15:22:11.002Z,93.08
2022-12-31T15:27:35.136Z,93.34
2022-12-31T15:32:40.144Z,94.05
2022-12-31T15:37:41.287Z,93.35
2022-12-31T15:42:54.705Z,93.49
2022-12-31T15:47:58.665Z,93.52
2022-12-31T15:53:01.969Z,93.99
2022-12-31T15:58:11.786Z,93.76
2022-12-31T16:03:24.813Z,93.88
2022-12-31T16:08:30.059Z,94.16
2022-12-31T16:13:31.961Z,93.42
2022-12-31T16:18:43.728Z,94.13
2022-12-31T16:23:49.704Z,94.04
2022-12-31T16:28:51.392Z,94.27
2022-12-31T16:34:01.415Z,94.49
2022-12-31T16:39:43.888Z,94.63
2022-12-31T18:47:24.003Z,87.10
2022-12-31T18:52:24.945Z,86.70
2022-12-31T18:57:26.121Z,87.70
2022-12-31T19:02:26.933Z,88.42
2022-12-31T19:07:27.710Z,88.18
2022-12-31T19:12:28.526Z,87.26
2022-12-31T19:17:29.317Z,87.26
2022-12-31T19:22:30.265Z,86.76
2022-12-31T19:27:30.994Z,85.73
2022-12-31T19:32:31.828Z,85.61
2022-12-31T19:37:32.567Z,86.01
2022-12-31T19:42:33.351Z,84.65
2022-12-31T19:47:34.090Z,84.42
2022-12-31T19:52:35.075Z,84.63
2022-12-31T19:57:39.078Z,84.57
2022-12-31T20:02:40.871Z,83.56
2022-12-31T20:07:42.351Z,83.95
2022-12-31T20:12:44.703Z,84.26
2022-12-31T20:17:45.776Z,83.69
2022-12-31T20:22:46.810Z,83.88
2022-12-31T20:27:47.587Z,84.00
2022-12-31T20:32:51.006Z,83.57
2022-12-31T20:37:51.789Z,84.35
2022-12-31T20:42:52.605Z,84.94
2022-12-31T20:47:53.327Z,85.50
2022-12-31T20:52:54.528Z,85.09
2022-12-31T20:57:55.362Z,85.03
2022-12-31T21:03:04.986Z,85.87
2022-12-31T21:08:11.575Z,86.48
2022-12-31T21:13:12.351Z,86.45
2022-12-31T21:18:13.186Z,86.31
2022-12-31T21:23:15.044Z,85.96
2022-12-31T21:28:15.819Z,86.01
2022-12-31T21:33:16.635Z,86.61
2022-12-31T21:38:18.029Z,86.65
2022-12-31T21:43:18.983Z,86.77
2022-12-31T21:48:19.770Z,87.12
2022-12-31T21:53:26.158Z,86.59
2022-12-31T21:58:29.921Z,85.44
2022-12-31T22:03:31.471Z,86.31
2022-12-31T22:08:32.417Z,86.21
2022-12-31T22:13:34.069Z,85.82
2022-12-31T22:18:40.176Z,85.77
2022-12-31T22:23:41.679Z,86.95
2022-12-31T22:28:44.036Z,86.18
2022-12-31T22:33:45.727Z,86.08
2022-12-31T22:38:47.582Z,86.57
2022-12-31T22:43:55.968Z,86.58
2022-12-31T22:49:03.166Z,86.57
2022-12-31T22:54:04.351Z,87.81
2022-12-31T22:59:05.271Z,88.87
2022-12-31T23:04:06.250Z,90.07
2022-12-31T23:09:25.695Z,90.16
2022-12-31T23:14:44.915Z,90.67
2022-12-31T23:20:04.349Z,91.32
2022-12-31T23:25:05.469Z,92.08
2022-12-31T23:30:07.271Z,94.05
2022-12-31T23:35:10.047Z,93.18
2022-12-31T23:40:15.733Z,94.01
2022-12-31T23:45:19.990Z,94.05
2022-12-31T23:50:20.715Z,94.38
2022-12-31T23:55:21.622Z,94.37
